sensor_id;sensor_type;location;lat;lon;timestamp;temperature;humidity
30825;DHT22;17550;45.486;12.222;2023-03-01T00:01:29;4.20;99.30
30825;DHT22;17550;45.486;12.222;2023-03-01T00:03:56;4.10;99.30
30825;DHT22;17550;45.486;12.222;2023-03-01T00:06:22;4.10;99.30
30825;DHT22;17550;45.486;12.222;2023-03-01T00:08:48;4.10;99.40
30825;DHT22;17550;45.486;12.222;2023-03-01T00:11:17;4.00;99.50
30825;DHT22;17550;45.486;12.222;2023-03-01T00:13:44;4.00;99.70
30825;DHT22;17550;45.486;12.222;2023-03-01T00:16:13;3.90;99.70
30825;DHT22;17550;45.486;12.222;2023-03-01T00:18:40;3.90;99.90
30825;DHT22;17550;45.486;12.222;2023-03-01T00:21:05;3.90;99.80
30825;DHT22;17550;45.486;12.222;2023-03-01T00:23:31;3.90;99.90
30825;DHT22;17550;45.486;12.222;2023-03-01T00:25:58;3.80;99.90
30825;DHT22;17550;45.486;12.222;2023-03-01T00:28:24;3.90;99.90
30825;DHT22;17550;45.486;12.222;2023-03-01T00:30:50;3.90;99.90
30825;DHT22;17550;45.486;12.222;2023-03-01T00:33:15;3.80;99.90
30825;DHT22;17550;45.486;12.222;2023-03-01T00:35:41;3.80;99.90
30825;DHT22;17550;45.486;12.222;2023-03-01T00:38:07;3.80;99.90
30825;DHT22;17550;45.486;12.222;2023-03-01T00:40:34;3.80;99.90
30825;DHT22;17550;45.486;12.222;2023-03-01T00:43:01;3.80;99.90
30825;DHT22;17550;45.486;12.222;2023-03-01T00:45:27;3.70;99.90
30825;DHT22;17550;45.486;12.222;2023-03-01T00:47:53;3.70;99.90
30825;DHT22;17550;45.486;12.222;2023-03-01T00:50:20;3.70;99.90
30825;DHT22;17550;45.486;12.222;2023-03-01T00:52:46;3.70;99.90
30825;DHT22;17550;45.486;12.222;2023-03-01T00:55:12;3.70;99.90
30825;DHT22;17550;45.486;12.222;2023-03-01T00:57:38;3.70;99.90
30825;DHT22;17550;45.486;12.222;2023-03-01T01:00:05;3.70;99.90
30825;DHT22;17550;45.486;12.222;2023-03-01T01:02:33;3.70;99.90
30825;DHT22;17550;45.486;12.222;2023-03-01T01:04:59;3.70;99.90
30825;DHT22;17550;45.486;12.222;2023-03-01T01:07:25;3.70;99.90
30825;DHT22;17550;45.486;12.222;2023-03-01T01:09:50;3.70;99.90
30825;DHT22;17550;45.486;12.222;2023-03-01T01:12:16;3.70;99.90
30825;DHT22;17550;45.486;12.222;2023-03-01T01:14:42;3.70;99.90
30825;DHT22;17550;45.486;12.222;2023-03-01T01:17:08;3.80;99.90
30825;DHT22;17550;45.486;12.222;2023-03-01T01:19:34;3.80;99.90
30825;DHT22;17550;45.486;12.222;2023-03-01T01:22:00;3.80;99.90
30825;DHT22;17550;45.486;12.222;2023-03-01T01:24:26;3.80;99.90
30825;DHT22;17550;45.486;12.222;2023-03-01T01:26:51;3.80;99.90
30825;DHT22;17550;45.486;12.222;2023-03-01T01:29:17;3.90;99.90
30825;DHT22;17550;45.486;12.222;2023-03-01T01:31:43;4.00;99.90
30825;DHT22;17550;45.486;12.222;2023-03-01T01:34:16;4.00;99.90
30825;DHT22;17550;45.486;12.222;2023-03-01T01:36:43;4.00;99.90
30825;DHT22;17550;45.486;12.222;2023-03-01T01:39:09;4.00;99.90
30825;DHT22;17550;45.486;12.222;2023-03-01T01:41:40;4.00;99.90
30825;DHT22;17550;45.486;12.222;2023-03-01T01:44:25;4.10;99.90
30825;DHT22;17550;45.486;12.222;2023-03-01T01:47:05;4.10;99.90
30825;DHT22;17550;45.486;12.222;2023-03-01T01:52:13;4.20;99.90
30825;DHT22;17550;45.486;12.222;2023-03-01T01:54:57;4.20;99.90
30825;DHT22;17550;45.486;12.222;2023-03-01T01:57:41;4.20;99.90
30825;DHT22;17550;45.486;12.222;2023-03-01T02:02:39;4.20;99.90
30825;DHT22;17550;45.486;12.222;2023-03-01T02:05:24;4.30;99.90
30825;DHT22;17550;45.486;12.222;2023-03-01T02:07:52;4.30;99.90
30825;DHT22;17550;45.486;12.222;2023-03-01T02:10:18;4.40;99.80
30825;DHT22;17550;45.486;12.222;2023-03-01T02:12:47;4.40;99.90
30825;DHT22;17550;45.486;12.222;2023-03-01T02:15:12;4.40;99.80
30825;DHT22;17550;45.486;12.222;2023-03-01T02:17:38;4.40;99.80
30825;DHT22;17550;45.486;12.222;2023-03-01T02:22:52;4.40;99.90
30825;DHT22;17550;45.486;12.222;2023-03-01T02:30:56;4.40;99.90
30825;DHT22;17550;45.486;12.222;2023-03-01T02:33:41;4.40;99.90
30825;DHT22;17550;45.486;12.222;2023-03-01T02:36:17;4.40;99.90
30825;DHT22;17550;45.486;12.222;2023-03-01T02:38:44;4.40;99.80
30825;DHT22;17550;45.486;12.222;2023-03-01T02:41:14;4.50;99.80
30825;DHT22;17550;45.486;12.222;2023-03-01T02:43:40;4.50;99.70
30825;DHT22;17550;45.486;12.222;2023-03-01T02:46:16;4.50;99.50
30825;DHT22;17550;45.486;12.222;2023-03-01T02:48:49;4.60;99.30
30825;DHT22;17550;45.486;12.222;2023-03-01T02:54:10;4.60;99.40
30825;DHT22;17550;45.486;12.222;2023-03-01T02:56:39;4.60;99.30
30825;DHT22;17550;45.486;12.222;2023-03-01T02:59:05;4.60;99.30
30825;DHT22;17550;45.486;12.222;2023-03-01T03:01:31;4.60;99.30
30825;DHT22;17550;45.486;12.222;2023-03-01T03:04:08;4.60;99.30
30825;DHT22;17550;45.486;12.222;2023-03-01T03:06:35;4.60;99.30
30825;DHT22;17550;45.486;12.222;2023-03-01T03:09:02;4.70;99.40
30825;DHT22;17550;45.486;12.222;2023-03-01T03:11:27;4.60;99.50
30825;DHT22;17550;45.486;12.222;2023-03-01T03:13:53;4.60;99.50
30825;DHT22;17550;45.486;12.222;2023-03-01T03:16:20;4.60;99.40
30825;DHT22;17550;45.486;12.222;2023-03-01T03:18:46;4.60;99.40
30825;DHT22;17550;45.486;12.222;2023-03-01T03:21:12;4.60;99.50
30825;DHT22;17550;45.486;12.222;2023-03-01T03:23:38;4.60;99.40
30825;DHT22;17550;45.486;12.222;2023-03-01T03:26:05;4.60;99.50
30825;DHT22;17550;45.486;12.222;2023-03-01T03:28:32;4.60;99.50
30825;DHT22;17550;45.486;12.222;2023-03-01T03:30:58;4.60;99.50
30825;DHT22;17550;45.486;12.222;2023-03-01T03:33:24;4.50;99.60
30825;DHT22;17550;45.486;12.222;2023-03-01T03:35:50;4.50;99.60
30825;DHT22;17550;45.486;12.222;2023-03-01T03:38:18;4.50;99.60
30825;DHT22;17550;45.486;12.222;2023-03-01T03:40:58;4.50;99.70
30825;DHT22;17550;45.486;12.222;2023-03-01T03:43:26;4.50;99.70
30825;DHT22;17550;45.486;12.222;2023-03-01T03:45:52;4.50;99.70
30825;DHT22;17550;45.486;12.222;2023-03-01T03:48:19;4.50;99.70
30825;DHT22;17550;45.486;12.222;2023-03-01T03:50:54;4.50;99.70
30825;DHT22;17550;45.486;12.222;2023-03-01T03:53:21;4.40;99.80
30825;DHT22;17550;45.486;12.222;2023-03-01T03:55:47;4.50;99.90
30825;DHT22;17550;45.486;12.222;2023-03-01T03:58:15;4.40;99.90
30825;DHT22;17550;45.486;12.222;2023-03-01T04:00:43;4.40;99.90
30825;DHT22;17550;45.486;12.222;2023-03-01T04:03:12;4.40;99.90
30825;DHT22;17550;45.486;12.222;2023-03-01T04:05:39;4.40;99.90
30825;DHT22;17550;45.486;12.222;2023-03-01T04:08:05;4.40;99.90
30825;DHT22;17550;45.486;12.222;2023-03-01T04:10:39;4.30;99.90
30825;DHT22;17550;45.486;12.222;2023-03-01T04:13:07;4.30;99.90
30825;DHT22;17550;45.486;12.222;2023-03-01T04:15:33;4.40;99.90
30825;DHT22;17550;45.486;12.222;2023-03-01T04:17:59;4.30;99.90
30825;DHT22;17550;45.486;12.222;2023-03-01T04:20:28;4.20;99.90
30825;DHT22;17550;45.486;12.222;2023-03-01T04:25:24;4.10;99.90
30825;DHT22;17550;45.486;12.222;2023-03-01T04:27:50;4.00;99.90
30825;DHT22;17550;45.486;12.222;2023-03-01T04:30:16;3.90;99.90
30825;DHT22;17550;45.486;12.222;2023-03-01T04:32:42;3.90;99.90
30825;DHT22;17550;45.486;12.222;2023-03-01T04:35:08;4.00;99.90
30825;DHT22;17550;45.486;12.222;2023-03-01T04:37:34;4.00;99.90
30825;DHT22;17550;45.486;12.222;2023-03-01T04:40:01;3.90;99.90
30825;DHT22;17550;45.486;12.222;2023-03-01T04:42:33;3.80;99.90
30825;DHT22;17550;45.486;12.222;2023-03-01T04:44:58;3.90;99.90
30825;DHT22;17550;45.486;12.222;2023-03-01T04:47:24;3.90;99.90
30825;DHT22;17550;45.486;12.222;2023-03-01T04:49:50;3.80;99.90
30825;DHT22;17550;45.486;12.222;2023-03-01T04:52:15;3.80;99.90
30825;DHT22;17550;45.486;12.222;2023-03-01T04:54:41;3.80;99.90
30825;DHT22;17550;45.486;12.222;2023-03-01T04:57:08;3.90;99.90
30825;DHT22;17550;45.486;12.222;2023-03-01T04:59:34;3.90;99.90
30825;DHT22;17550;45.486;12.222;2023-03-01T05:02:01;3.90;99.90
30825;DHT22;17550;45.486;12.222;2023-03-01T05:04:27;4.00;99.90
30825;DHT22;17550;45.486;12.222;2023-03-01T05:06:52;4.00;99.90
30825;DHT22;17550;45.486;12.222;2023-03-01T05:09:19;3.90;99.90
30825;DHT22;17550;45.486;12.222;2023-03-01T05:11:44;4.00;99.90
30825;DHT22;17550;45.486;12.222;2023-03-01T05:14:10;4.00;99.90
30825;DHT22;17550;45.486;12.222;2023-03-01T05:16:36;4.00;99.90
30825;DHT22;17550;45.486;12.222;2023-03-01T05:19:03;4.00;99.90
30825;DHT22;17550;45.486;12.222;2023-03-01T05:21:41;4.00;99.90
30825;DHT22;17550;45.486;12.222;2023-03-01T05:24:26;4.00;99.90
30825;DHT22;17550;45.486;12.222;2023-03-01T05:26:52;4.10;99.90
30825;DHT22;17550;45.486;12.222;2023-03-01T05:29:19;4.10;99.90
30825;DHT22;17550;45.486;12.222;2023-03-01T05:31:53;4.10;99.90
30825;DHT22;17550;45.486;12.222;2023-03-01T05:34:26;4.10;99.90
30825;DHT22;17550;45.486;12.222;2023-03-01T05:36:53;4.20;99.90
30825;DHT22;17550;45.486;12.222;2023-03-01T05:39:20;4.20;99.90
30825;DHT22;17550;45.486;12.222;2023-03-01T05:41:53;4.20;99.90
30825;DHT22;17550;45.486;12.222;2023-03-01T05:44:19;4.20;99.90
30825;DHT22;17550;45.486;12.222;2023-03-01T05:46:46;4.30;99.90
30825;DHT22;17550;45.486;12.222;2023-03-01T05:49:12;4.40;99.90
30825;DHT22;17550;45.486;12.222;2023-03-01T05:51:39;4.40;99.90
30825;DHT22;17550;45.486;12.222;2023-03-01T05:54:05;4.40;99.90
30825;DHT22;17550;45.486;12.222;2023-03-01T05:56:36;4.40;99.90
30825;DHT22;17550;45.486;12.222;2023-03-01T05:59:03;4.50;99.90
30825;DHT22;17550;45.486;12.222;2023-03-01T06:01:30;4.50;99.90
30825;DHT22;17550;45.486;12.222;2023-03-01T06:03:56;4.50;99.90
30825;DHT22;17550;45.486;12.222;2023-03-01T06:06:22;4.50;99.90
30825;DHT22;17550;45.486;12.222;2023-03-01T06:08:49;4.50;99.90
30825;DHT22;17550;45.486;12.222;2023-03-01T06:11:14;4.50;99.90
30825;DHT22;17550;45.486;12.222;2023-03-01T06:13:44;4.60;99.90
30825;DHT22;17550;45.486;12.222;2023-03-01T06:16:11;4.60;99.90
30825;DHT22;17550;45.486;12.222;2023-03-01T06:18:37;4.70;99.90
30825;DHT22;17550;45.486;12.222;2023-03-01T06:21:03;4.70;99.90
30825;DHT22;17550;45.486;12.222;2023-03-01T06:23:30;4.70;99.90
30825;DHT22;17550;45.486;12.222;2023-03-01T06:25:55;4.70;99.90
30825;DHT22;17550;45.486;12.222;2023-03-01T06:28:21;4.70;99.90
30825;DHT22;17550;45.486;12.222;2023-03-01T06:30:47;4.80;99.90
30825;DHT22;17550;45.486;12.222;2023-03-01T06:33:13;4.90;99.90
30825;DHT22;17550;45.486;12.222;2023-03-01T06:35:38;4.90;99.90
30825;DHT22;17550;45.486;12.222;2023-03-01T06:38:05;4.90;99.90
30825;DHT22;17550;45.486;12.222;2023-03-01T06:40:31;5.00;99.90
30825;DHT22;17550;45.486;12.222;2023-03-01T06:42:57;5.00;99.90
30825;DHT22;17550;45.486;12.222;2023-03-01T06:45:24;5.00;99.90
30825;DHT22;17550;45.486;12.222;2023-03-01T06:47:50;5.10;99.90
30825;DHT22;17550;45.486;12.222;2023-03-01T06:50:17;5.10;99.90
30825;DHT22;17550;45.486;12.222;2023-03-01T06:52:43;5.10;99.90
30825;DHT22;17550;45.486;12.222;2023-03-01T06:55:11;5.20;99.90
30825;DHT22;17550;45.486;12.222;2023-03-01T06:57:36;5.20;99.90
30825;DHT22;17550;45.486;12.222;2023-03-01T07:00:04;5.30;99.90
30825;DHT22;17550;45.486;12.222;2023-03-01T07:02:31;5.30;99.90
30825;DHT22;17550;45.486;12.222;2023-03-01T07:04:56;5.30;99.90
30825;DHT22;17550;45.486;12.222;2023-03-01T07:07:22;5.50;99.90
30825;DHT22;17550;45.486;12.222;2023-03-01T07:09:49;5.50;99.90
30825;DHT22;17550;45.486;12.222;2023-03-01T07:12:14;5.60;99.90
30825;DHT22;17550;45.486;12.222;2023-03-01T07:14:40;5.70;99.90
30825;DHT22;17550;45.486;12.222;2023-03-01T07:17:06;5.80;99.90
30825;DHT22;17550;45.486;12.222;2023-03-01T07:19:32;5.80;99.90
30825;DHT22;17550;45.486;12.222;2023-03-01T07:21:58;5.90;99.90
30825;DHT22;17550;45.486;12.222;2023-03-01T07:24:23;6.00;99.80
30825;DHT22;17550;45.486;12.222;2023-03-01T07:26:50;6.10;99.70
30825;DHT22;17550;45.486;12.222;2023-03-01T07:29:16;6.20;99.60
30825;DHT22;17550;45.486;12.222;2023-03-01T07:31:42;6.30;99.40
30825;DHT22;17550;45.486;12.222;2023-03-01T07:34:08;6.40;99.00
30825;DHT22;17550;45.486;12.222;2023-03-01T07:36:34;6.50;99.00
30825;DHT22;17550;45.486;12.222;2023-03-01T07:38:59;6.50;99.00
30825;DHT22;17550;45.486;12.222;2023-03-01T07:41:28;6.60;99.00
30825;DHT22;17550;45.486;12.222;2023-03-01T07:43:54;6.60;98.70
30825;DHT22;17550;45.486;12.222;2023-03-01T07:46:19;6.70;98.70
30825;DHT22;17550;45.486;12.222;2023-03-01T07:48:48;6.70;98.40
30825;DHT22;17550;45.486;12.222;2023-03-01T07:51:13;6.80;98.50
30825;DHT22;17550;45.486;12.222;2023-03-01T07:53:39;6.80;98.30
30825;DHT22;17550;45.486;12.222;2023-03-01T07:56:07;6.90;98.10
30825;DHT22;17550;45.486;12.222;2023-03-01T07:58:35;7.00;97.90
30825;DHT22;17550;45.486;12.222;2023-03-01T08:01:05;7.10;97.80
30825;DHT22;17550;45.486;12.222;2023-03-01T08:03:32;7.10;97.60
30825;DHT22;17550;45.486;12.222;2023-03-01T08:06:00;7.20;97.70
30825;DHT22;17550;45.486;12.222;2023-03-01T08:08:26;7.20;97.40
30825;DHT22;17550;45.486;12.222;2023-03-01T08:10:56;7.20;97.10
30825;DHT22;17550;45.486;12.222;2023-03-01T08:13:22;7.20;97.20
30825;DHT22;17550;45.486;12.222;2023-03-01T08:15:51;7.30;97.40
30825;DHT22;17550;45.486;12.222;2023-03-01T08:18:18;7.30;97.30
30825;DHT22;17550;45.486;12.222;2023-03-01T08:20:44;7.40;97.20
30825;DHT22;17550;45.486;12.222;2023-03-01T08:23:10;7.40;97.30
30825;DHT22;17550;45.486;12.222;2023-03-01T08:25:36;7.40;97.30
30825;DHT22;17550;45.486;12.222;2023-03-01T08:28:02;7.50;97.20
30825;DHT22;17550;45.486;12.222;2023-03-01T08:30:28;7.70;97.10
30825;DHT22;17550;45.486;12.222;2023-03-01T08:32:54;7.70;97.10
30825;DHT22;17550;45.486;12.222;2023-03-01T08:35:20;7.80;97.10
30825;DHT22;17550;45.486;12.222;2023-03-01T08:37:46;7.80;97.10
30825;DHT22;17550;45.486;12.222;2023-03-01T08:40:12;7.90;97.00
30825;DHT22;17550;45.486;12.222;2023-03-01T08:42:39;8.00;96.90
30825;DHT22;17550;45.486;12.222;2023-03-01T08:45:06;8.10;96.90
30825;DHT22;17550;45.486;12.222;2023-03-01T08:47:32;8.20;96.70
30825;DHT22;17550;45.486;12.222;2023-03-01T08:49:59;8.40;96.50
30825;DHT22;17550;45.486;12.222;2023-03-01T08:52:25;8.60;96.50
30825;DHT22;17550;45.486;12.222;2023-03-01T08:54:52;8.80;96.20
30825;DHT22;17550;45.486;12.222;2023-03-01T08:57:18;9.00;96.00
30825;DHT22;17550;45.486;12.222;2023-03-01T08:59:44;9.20;95.70
30825;DHT22;17550;45.486;12.222;2023-03-01T09:02:14;9.30;95.60
30825;DHT22;17550;45.486;12.222;2023-03-01T09:04:40;9.60;94.90
30825;DHT22;17550;45.486;12.222;2023-03-01T09:07:07;9.80;94.80
30825;DHT22;17550;45.486;12.222;2023-03-01T09:09:32;10.00;94.70
30825;DHT22;17550;45.486;12.222;2023-03-01T09:11:58;10.30;94.10
30825;DHT22;17550;45.486;12.222;2023-03-01T09:14:24;10.30;94.30
30825;DHT22;17550;45.486;12.222;2023-03-01T09:16:50;10.30;94.20
30825;DHT22;17550;45.486;12.222;2023-03-01T09:19:16;10.40;94.00
30825;DHT22;17550;45.486;12.222;2023-03-01T09:21:42;10.40;93.50
30825;DHT22;17550;45.486;12.222;2023-03-01T09:24:19;10.40;93.30
30825;DHT22;17550;45.486;12.222;2023-03-01T09:26:45;10.40;93.30
30825;DHT22;17550;45.486;12.222;2023-03-01T09:29:14;10.40;93.30
30825;DHT22;17550;45.486;12.222;2023-03-01T09:31:41;10.30;93.10
30825;DHT22;17550;45.486;12.222;2023-03-01T09:34:07;10.30;92.90
30825;DHT22;17550;45.486;12.222;2023-03-01T09:36:33;10.30;92.70
30825;DHT22;17550;45.486;12.222;2023-03-01T09:38:59;10.40;92.90
30825;DHT22;17550;45.486;12.222;2023-03-01T09:41:54;10.40;93.10
30825;DHT22;17550;45.486;12.222;2023-03-01T09:47:16;10.50;92.60
30825;DHT22;17550;45.486;12.222;2023-03-01T09:49:43;10.60;92.70
30825;DHT22;17550;45.486;12.222;2023-03-01T09:52:50;10.80;92.70
30825;DHT22;17550;45.486;12.222;2023-03-01T09:55:30;11.10;91.80
30825;DHT22;17550;45.486;12.222;2023-03-01T09:58:28;11.00;91.90
30825;DHT22;17550;45.486;12.222;2023-03-01T10:01:01;11.10;91.50
30825;DHT22;17550;45.486;12.222;2023-03-01T10:03:28;11.00;91.20
30825;DHT22;17550;45.486;12.222;2023-03-01T10:11:08;11.40;91.60
30825;DHT22;17550;45.486;12.222;2023-03-01T10:13:59;11.40;90.70
30825;DHT22;17550;45.486;12.222;2023-03-01T10:16:50;11.20;91.00
30825;DHT22;17550;45.486;12.222;2023-03-01T10:19:38;11.20;91.10
30825;DHT22;17550;45.486;12.222;2023-03-01T10:22:20;11.10;91.00
30825;DHT22;17550;45.486;12.222;2023-03-01T10:24:48;11.00;91.50
30825;DHT22;17550;45.486;12.222;2023-03-01T10:27:23;11.00;91.20
30825;DHT22;17550;45.486;12.222;2023-03-01T10:32:18;11.20;91.50
30825;DHT22;17550;45.486;12.222;2023-03-01T10:34:44;11.10;91.10
30825;DHT22;17550;45.486;12.222;2023-03-01T10:37:18;11.10;91.60
30825;DHT22;17550;45.486;12.222;2023-03-01T10:40:01;11.10;91.30
30825;DHT22;17550;45.486;12.222;2023-03-01T10:42:33;11.00;91.50
30825;DHT22;17550;45.486;12.222;2023-03-01T10:47:46;11.00;91.60
30825;DHT22;17550;45.486;12.222;2023-03-01T10:50:20;10.90;91.50
30825;DHT22;17550;45.486;12.222;2023-03-01T10:53:02;10.90;91.70
30825;DHT22;17550;45.486;12.222;2023-03-01T10:55:36;10.80;91.60
30825;DHT22;17550;45.486;12.222;2023-03-01T10:58:21;10.70;91.40
30825;DHT22;17550;45.486;12.222;2023-03-01T11:00:54;10.70;91.80
30825;DHT22;17550;45.486;12.222;2023-03-01T11:03:32;10.70;92.00
30825;DHT22;17550;45.486;12.222;2023-03-01T11:08:37;10.60;92.10
30825;DHT22;17550;45.486;12.222;2023-03-01T11:13:49;10.50;92.00
30825;DHT22;17550;45.486;12.222;2023-03-01T11:16:33;10.40;92.10
30825;DHT22;17550;45.486;12.222;2023-03-01T11:19:20;10.30;92.00
30825;DHT22;17550;45.486;12.222;2023-03-01T11:24:19;10.20;92.40
30825;DHT22;17550;45.486;12.222;2023-03-01T11:26:50;10.10;92.30
30825;DHT22;17550;45.486;12.222;2023-03-01T11:29:32;10.10;92.30
30825;DHT22;17550;45.486;12.222;2023-03-01T11:32:01;10.00;92.10
30825;DHT22;17550;45.486;12.222;2023-03-01T11:34:51;9.90;92.10
30825;DHT22;17550;45.486;12.222;2023-03-01T11:37:40;9.80;92.30
30825;DHT22;17550;45.486;12.222;2023-03-01T11:40:25;9.70;92.30
30825;DHT22;17550;45.486;12.222;2023-03-01T11:43:23;9.70;92.60
30825;DHT22;17550;45.486;12.222;2023-03-01T12:00:04;9.60;92.80
30825;DHT22;17550;45.486;12.222;2023-03-01T12:11:19;9.50;93.30
30825;DHT22;17550;45.486;12.222;2023-03-01T12:16:57;9.50;93.40
30825;DHT22;17550;45.486;12.222;2023-03-01T12:39:08;9.40;93.60
30825;DHT22;17550;45.486;12.222;2023-03-01T12:42:03;9.40;93.60
30825;DHT22;17550;45.486;12.222;2023-03-01T12:47:07;9.40;93.80
30825;DHT22;17550;45.486;12.222;2023-03-01T12:50:00;9.30;93.80
30825;DHT22;17550;45.486;12.222;2023-03-01T12:52:43;9.30;94.00
30825;DHT22;17550;45.486;12.222;2023-03-01T12:55:32;9.30;94.20
30825;DHT22;17550;45.486;12.222;2023-03-01T13:03:26;9.20;94.80
30825;DHT22;17550;45.486;12.222;2023-03-01T13:06:07;9.20;95.20
30825;DHT22;17550;45.486;12.222;2023-03-01T13:08:40;9.20;95.80
30825;DHT22;17550;45.486;12.222;2023-03-01T13:11:19;9.30;95.70
30825;DHT22;17550;45.486;12.222;2023-03-01T13:13:48;9.30;94.90
30825;DHT22;17550;45.486;12.222;2023-03-01T13:18:47;9.30;94.80
30825;DHT22;17550;45.486;12.222;2023-03-01T13:21:29;9.20;94.50
30825;DHT22;17550;45.486;12.222;2023-03-01T13:23:55;9.20;94.80
30825;DHT22;17550;45.486;12.222;2023-03-01T13:26:21;9.20;94.70
30825;DHT22;17550;45.486;12.222;2023-03-01T13:28:52;9.20;94.60
30825;DHT22;17550;45.486;12.222;2023-03-01T13:33:49;9.20;94.90
30825;DHT22;17550;45.486;12.222;2023-03-01T13:39:29;9.20;94.90
30825;DHT22;17550;45.486;12.222;2023-03-01T13:41:58;9.30;95.00
30825;DHT22;17550;45.486;12.222;2023-03-01T13:44:36;9.20;94.80
30825;DHT22;17550;45.486;12.222;2023-03-01T13:54:47;9.20;95.80
30825;DHT22;17550;45.486;12.222;2023-03-01T13:57:24;9.20;96.10
30825;DHT22;17550;45.486;12.222;2023-03-01T13:59:51;9.10;96.40
30825;DHT22;17550;45.486;12.222;2023-03-01T14:02:17;9.10;96.20
30825;DHT22;17550;45.486;12.222;2023-03-01T14:04:42;9.10;96.20
30825;DHT22;17550;45.486;12.222;2023-03-01T14:09:40;9.00;96.50
30825;DHT22;17550;45.486;12.222;2023-03-01T14:18:10;8.90;97.90
30825;DHT22;17550;45.486;12.222;2023-03-01T14:20:41;8.90;98.40
30825;DHT22;17550;45.486;12.222;2023-03-01T14:23:13;8.90;98.40
30825;DHT22;17550;45.486;12.222;2023-03-01T14:30:49;8.80;98.60
30825;DHT22;17550;45.486;12.222;2023-03-01T14:36:01;8.90;98.60
30825;DHT22;17550;45.486;12.222;2023-03-01T14:41:07;8.80;99.30
30825;DHT22;17550;45.486;12.222;2023-03-01T14:43:33;8.90;99.40
30825;DHT22;17550;45.486;12.222;2023-03-01T14:46:00;8.80;99.80
30825;DHT22;17550;45.486;12.222;2023-03-01T14:48:27;8.80;99.60
30825;DHT22;17550;45.486;12.222;2023-03-01T14:50:54;8.80;99.40
30825;DHT22;17550;45.486;12.222;2023-03-01T14:53:29;8.80;99.90
30825;DHT22;17550;45.486;12.222;2023-03-01T14:55:59;8.80;99.70
30825;DHT22;17550;45.486;12.222;2023-03-01T14:58:28;8.90;99.90
30825;DHT22;17550;45.486;12.222;2023-03-01T15:01:04;8.90;99.90
30825;DHT22;17550;45.486;12.222;2023-03-01T15:03:37;8.90;99.90
30825;DHT22;17550;45.486;12.222;2023-03-01T15:06:05;8.90;99.90
30825;DHT22;17550;45.486;12.222;2023-03-01T15:08:31;9.00;99.90
30825;DHT22;17550;45.486;12.222;2023-03-01T15:13:33;9.10;99.90
30825;DHT22;17550;45.486;12.222;2023-03-01T15:16:33;9.20;99.90
30825;DHT22;17550;45.486;12.222;2023-03-01T15:19:04;9.20;99.90
30825;DHT22;17550;45.486;12.222;2023-03-01T15:21:38;9.30;99.90
30825;DHT22;17550;45.486;12.222;2023-03-01T15:26:46;9.30;99.90
30825;DHT22;17550;45.486;12.222;2023-03-01T15:29:21;9.30;99.90
30825;DHT22;17550;45.486;12.222;2023-03-01T15:32:01;9.30;99.90
30825;DHT22;17550;45.486;12.222;2023-03-01T15:34:33;9.30;99.90
30825;DHT22;17550;45.486;12.222;2023-03-01T15:37:00;9.20;99.90
30825;DHT22;17550;45.486;12.222;2023-03-01T15:42:05;9.00;99.90
30825;DHT22;17550;45.486;12.222;2023-03-01T15:44:37;9.00;99.90
30825;DHT22;17550;45.486;12.222;2023-03-01T15:47:26;9.00;99.90
30825;DHT22;17550;45.486;12.222;2023-03-01T15:49:53;8.90;99.90
30825;DHT22;17550;45.486;12.222;2023-03-01T15:52:25;8.80;99.90
30825;DHT22;17550;45.486;12.222;2023-03-01T15:55:02;8.70;99.90
30825;DHT22;17550;45.486;12.222;2023-03-01T15:57:29;8.60;99.90
30825;DHT22;17550;45.486;12.222;2023-03-01T15:59:55;8.60;99.90
30825;DHT22;17550;45.486;12.222;2023-03-01T16:02:23;8.50;99.90
30825;DHT22;17550;45.486;12.222;2023-03-01T16:04:49;8.40;99.90
30825;DHT22;17550;45.486;12.222;2023-03-01T16:07:15;8.30;99.90
30825;DHT22;17550;45.486;12.222;2023-03-01T16:09:41;8.30;99.90
30825;DHT22;17550;45.486;12.222;2023-03-01T16:12:15;8.20;99.90
30825;DHT22;17550;45.486;12.222;2023-03-01T16:14:41;8.00;99.90
30825;DHT22;17550;45.486;12.222;2023-03-01T16:17:07;7.90;99.90
30825;DHT22;17550;45.486;12.222;2023-03-01T16:19:36;7.90;99.90
30825;DHT22;17550;45.486;12.222;2023-03-01T16:22:02;7.80;99.90
30825;DHT22;17550;45.486;12.222;2023-03-01T16:24:28;7.60;99.90
30825;DHT22;17550;45.486;12.222;2023-03-01T16:26:54;7.50;99.90
30825;DHT22;17550;45.486;12.222;2023-03-01T16:29:19;7.40;99.90
30825;DHT22;17550;45.486;12.222;2023-03-01T16:31:45;7.40;99.90
30825;DHT22;17550;45.486;12.222;2023-03-01T16:34:12;7.30;99.90
30825;DHT22;17550;45.486;12.222;2023-03-01T16:36:38;7.20;99.90
30825;DHT22;17550;45.486;12.222;2023-03-01T16:39:04;7.20;99.90
30825;DHT22;17550;45.486;12.222;2023-03-01T16:41:30;7.20;99.90
30825;DHT22;17550;45.486;12.222;2023-03-01T16:43:56;7.10;99.90
30825;DHT22;17550;45.486;12.222;2023-03-01T16:46:24;7.10;99.90
30825;DHT22;17550;45.486;12.222;2023-03-01T16:48:51;7.00;99.90
30825;DHT22;17550;45.486;12.222;2023-03-01T16:51:17;7.00;99.90
30825;DHT22;17550;45.486;12.222;2023-03-01T16:53:44;7.00;99.90
30825;DHT22;17550;45.486;12.222;2023-03-01T16:56:11;7.00;99.90
30825;DHT22;17550;45.486;12.222;2023-03-01T16:58:38;6.90;99.90
30825;DHT22;17550;45.486;12.222;2023-03-01T17:01:16;6.90;99.90
30825;DHT22;17550;45.486;12.222;2023-03-01T17:03:43;6.90;99.90
30825;DHT22;17550;45.486;12.222;2023-03-01T17:06:12;6.90;99.90
30825;DHT22;17550;45.486;12.222;2023-03-01T17:08:38;6.90;99.90
30825;DHT22;17550;45.486;12.222;2023-03-01T17:11:13;6.90;99.90
30825;DHT22;17550;45.486;12.222;2023-03-01T17:13:39;6.90;99.90
30825;DHT22;17550;45.486;12.222;2023-03-01T17:16:10;6.90;99.90
30825;DHT22;17550;45.486;12.222;2023-03-01T17:18:36;6.80;99.90
30825;DHT22;17550;45.486;12.222;2023-03-01T17:21:03;6.80;99.90
30825;DHT22;17550;45.486;12.222;2023-03-01T17:23:30;6.80;99.90
30825;DHT22;17550;45.486;12.222;2023-03-01T17:25:56;6.80;99.90
30825;DHT22;17550;45.486;12.222;2023-03-01T17:28:23;6.80;99.90
30825;DHT22;17550;45.486;12.222;2023-03-01T17:30:49;6.80;99.90
30825;DHT22;17550;45.486;12.222;2023-03-01T17:33:16;6.90;99.90
30825;DHT22;17550;45.486;12.222;2023-03-01T17:35:42;6.90;99.90
30825;DHT22;17550;45.486;12.222;2023-03-01T17:38:10;6.90;99.90
30825;DHT22;17550;45.486;12.222;2023-03-01T17:40:36;6.90;99.90
30825;DHT22;17550;45.486;12.222;2023-03-01T17:43:04;6.90;99.90
30825;DHT22;17550;45.486;12.222;2023-03-01T17:45:30;6.90;99.90
30825;DHT22;17550;45.486;12.222;2023-03-01T17:47:56;6.80;99.90
30825;DHT22;17550;45.486;12.222;2023-03-01T17:50:21;6.80;99.90
30825;DHT22;17550;45.486;12.222;2023-03-01T17:52:47;6.80;99.90
30825;DHT22;17550;45.486;12.222;2023-03-01T17:55:14;6.80;99.90
30825;DHT22;17550;45.486;12.222;2023-03-01T17:57:40;6.80;99.90
30825;DHT22;17550;45.486;12.222;2023-03-01T18:00:09;6.70;99.90